Benicassim, Spain
Current Conditions -  °F | °C
As of 1:00 PM on Monday 20 Oct 2014 (Local Time) from LEBT Reporting Station
Clear Clear  
Wind Chill: 79°   Ceiling: Unl
Heat Index: 79°   Visibility: 6mi
Dew Point: 52°   Wind: 2mph
Humidity: 39%   Direction: NA
Pressure: 30.21"   Gusts: NA
Location:  40.05°N, 0.07°E
Report Text: LEBT 201100Z AUTO VRB02KT CAVOK 26/11 Q1023
Loading
Personal Weather Stations






























Interactive Weather Map
Tropical Storm Tracking
New forecast layout! Learn more

10-Day Weather Forecast

Advertisements
Track Severe Weather on mobile